sensor_id;sensor_type;location;lat;lon;timestamp;pressure;altitude;pressure_sealevel;temperature;humidity
69751;BME280;57335;52.288;6.056;2023-03-31T00:01:42;100336.16;;;10.05;100.00
69751;BME280;57335;52.288;6.056;2023-03-31T00:04:09;100331.00;;;9.92;100.00
69751;BME280;57335;52.288;6.056;2023-03-31T00:06:37;100328.97;;;9.94;100.00
69751;BME280;57335;52.288;6.056;2023-03-31T00:09:09;100312.56;;;9.87;100.00
69751;BME280;57335;52.288;6.056;2023-03-31T00:11:37;100315.75;;;9.89;100.00
69751;BME280;57335;52.288;6.056;2023-03-31T00:14:05;100316.34;;;9.91;100.00
69751;BME280;57335;52.288;6.056;2023-03-31T00:16:33;100317.00;;;9.86;100.00
69751;BME280;57335;52.288;6.056;2023-03-31T00:19:00;100300.66;;;9.84;100.00
69751;BME280;57335;52.288;6.056;2023-03-31T00:21:27;100288.22;;;9.79;100.00
69751;BME280;57335;52.288;6.056;2023-03-31T00:24:02;100287.00;;;9.82;100.00
69751;BME280;57335;52.288;6.056;2023-03-31T00:26:29;100276.78;;;9.81;100.00
69751;BME280;57335;52.288;6.056;2023-03-31T00:28:56;100275.75;;;9.82;100.00
69751;BME280;57335;52.288;6.056;2023-03-31T00:31:24;100277.78;;;9.79;100.00
69751;BME280;57335;52.288;6.056;2023-03-31T00:33:50;100261.06;;;9.81;100.00
69751;BME280;57335;52.288;6.056;2023-03-31T00:36:17;100267.88;;;9.82;100.00
69751;BME280;57335;52.288;6.056;2023-03-31T00:38:44;100259.03;;;9.83;100.00
69751;BME280;57335;52.288;6.056;2023-03-31T00:41:10;100247.16;;;9.80;100.00
69751;BME280;57335;52.288;6.056;2023-03-31T00:43:37;100250.31;;;9.89;100.00
69751;BME280;57335;52.288;6.056;2023-03-31T00:46:09;100260.34;;;9.92;100.00
69751;BME280;57335;52.288;6.056;2023-03-31T00:48:41;100228.25;;;9.78;100.00
69751;BME280;57335;52.288;6.056;2023-03-31T00:51:10;100244.88;;;9.90;100.00
69751;BME280;57335;52.288;6.056;2023-03-31T00:53:37;100249.88;;;9.92;100.00
69751;BME280;57335;52.288;6.056;2023-03-31T00:56:07;100245.09;;;9.89;100.00
69751;BME280;57335;52.288;6.056;2023-03-31T00:58:37;100251.91;;;9.90;100.00
69751;BME280;57335;52.288;6.056;2023-03-31T01:01:03;100225.44;;;9.79;100.00
69751;BME280;57335;52.288;6.056;2023-03-31T01:03:31;100233.00;;;9.88;100.00
69751;BME280;57335;52.288;6.056;2023-03-31T01:06:03;100205.81;;;9.70;100.00
69751;BME280;57335;52.288;6.056;2023-03-31T01:08:31;100214.59;;;9.76;100.00
69751;BME280;57335;52.288;6.056;2023-03-31T01:11:02;100200.19;;;9.67;100.00
69751;BME280;57335;52.288;6.056;2023-03-31T01:13:29;100192.56;;;9.65;100.00
69751;BME280;57335;52.288;6.056;2023-03-31T01:15:56;100203.31;;;9.75;100.00
69751;BME280;57335;52.288;6.056;2023-03-31T01:18:23;100186.47;;;9.71;100.00
69751;BME280;57335;52.288;6.056;2023-03-31T01:21:22;100192.78;;;9.82;100.00
69751;BME280;57335;52.288;6.056;2023-03-31T01:26:52;100169.75;;;9.72;100.00
69751;BME280;57335;52.288;6.056;2023-03-31T01:35:27;100178.03;;;9.88;100.00
69751;BME280;57335;52.288;6.056;2023-03-31T01:43:32;100133.03;;;9.79;100.00
69751;BME280;57335;52.288;6.056;2023-03-31T01:49:00;100146.50;;;10.01;100.00
69751;BME280;57335;52.288;6.056;2023-03-31T01:51:34;100133.19;;;10.03;100.00
69751;BME280;57335;52.288;6.056;2023-03-31T01:54:42;100127.66;;;10.11;100.00
69751;BME280;57335;52.288;6.056;2023-03-31T01:59:42;100119.13;;;10.15;100.00
69751;BME280;57335;52.288;6.056;2023-03-31T02:02:15;100098.50;;;10.07;100.00
69751;BME280;57335;52.288;6.056;2023-03-31T02:04:47;100114.84;;;10.21;100.00
69751;BME280;57335;52.288;6.056;2023-03-31T02:07:27;100097.59;;;10.13;100.00
69751;BME280;57335;52.288;6.056;2023-03-31T02:09:59;100100.09;;;10.08;100.00
69751;BME280;57335;52.288;6.056;2023-03-31T02:12:30;100091.22;;;10.09;100.00
69751;BME280;57335;52.288;6.056;2023-03-31T02:14:58;100086.19;;;10.08;100.00
69751;BME280;57335;52.288;6.056;2023-03-31T02:17:27;100103.06;;;10.12;100.00
69751;BME280;57335;52.288;6.056;2023-03-31T02:19:54;100082.34;;;10.10;100.00
69751;BME280;57335;52.288;6.056;2023-03-31T02:22:22;100062.63;;;10.08;100.00
69751;BME280;57335;52.288;6.056;2023-03-31T02:24:51;100046.81;;;10.03;100.00
69751;BME280;57335;52.288;6.056;2023-03-31T02:27:24;100055.59;;;10.08;100.00
69751;BME280;57335;52.288;6.056;2023-03-31T02:29:53;100043.94;;;10.04;100.00
69751;BME280;57335;52.288;6.056;2023-03-31T02:32:30;100021.28;;;9.98;100.00
69751;BME280;57335;52.288;6.056;2023-03-31T02:34:59;100031.34;;;10.13;100.00
69751;BME280;57335;52.288;6.056;2023-03-31T02:37:26;100011.31;;;10.07;100.00
69751;BME280;57335;52.288;6.056;2023-03-31T02:39:56;100030.09;;;10.15;100.00
69751;BME280;57335;52.288;6.056;2023-03-31T02:42:24;100016.44;;;10.13;100.00
69751;BME280;57335;52.288;6.056;2023-03-31T02:44:50;100010.06;;;10.09;100.00
69751;BME280;57335;52.288;6.056;2023-03-31T02:47:18;99993.88;;;10.01;100.00
69751;BME280;57335;52.288;6.056;2023-03-31T02:49:52;100008.59;;;10.13;100.00
69751;BME280;57335;52.288;6.056;2023-03-31T02:52:32;99984.31;;;10.06;100.00
69751;BME280;57335;52.288;6.056;2023-03-31T02:58:31;99970.78;;;10.09;100.00
69751;BME280;57335;52.288;6.056;2023-03-31T03:04:23;99966.81;;;10.07;100.00
69751;BME280;57335;52.288;6.056;2023-03-31T03:07:12;99958.50;;;10.10;100.00
69751;BME280;57335;52.288;6.056;2023-03-31T03:12:42;99940.50;;;10.13;100.00
69751;BME280;57335;52.288;6.056;2023-03-31T03:15:25;99909.88;;;10.02;100.00
69751;BME280;57335;52.288;6.056;2023-03-31T03:17:55;99917.50;;;10.04;100.00
69751;BME280;57335;52.288;6.056;2023-03-31T03:20:22;99918.56;;;10.14;100.00
69751;BME280;57335;52.288;6.056;2023-03-31T03:22:49;99932.44;;;10.15;100.00
69751;BME280;57335;52.288;6.056;2023-03-31T03:25:16;99912.84;;;10.17;100.00
69751;BME280;57335;52.288;6.056;2023-03-31T03:27:42;99893.59;;;10.12;100.00
69751;BME280;57335;52.288;6.056;2023-03-31T03:30:11;99901.59;;;10.17;100.00
69751;BME280;57335;52.288;6.056;2023-03-31T03:32:38;99875.19;;;10.07;100.00
69751;BME280;57335;52.288;6.056;2023-03-31T03:35:05;99892.94;;;10.16;100.00
69751;BME280;57335;52.288;6.056;2023-03-31T03:37:32;99871.75;;;10.18;100.00
69751;BME280;57335;52.288;6.056;2023-03-31T03:39:58;99885.53;;;10.25;100.00
69751;BME280;57335;52.288;6.056;2023-03-31T03:42:24;99864.25;;;10.10;100.00
69751;BME280;57335;52.288;6.056;2023-03-31T03:44:51;99859.34;;;10.13;100.00
69751;BME280;57335;52.288;6.056;2023-03-31T03:47:17;99859.34;;;10.13;100.00
69751;BME280;57335;52.288;6.056;2023-03-31T03:49:44;99860.72;;;10.16;100.00
69751;BME280;57335;52.288;6.056;2023-03-31T03:52:10;99864.16;;;10.16;100.00
69751;BME280;57335;52.288;6.056;2023-03-31T03:54:36;99862.31;;;10.17;100.00
69751;BME280;57335;52.288;6.056;2023-03-31T03:57:03;99858.91;;;10.16;100.00
69751;BME280;57335;52.288;6.056;2023-03-31T03:59:29;99844.13;;;10.10;100.00
69751;BME280;57335;52.288;6.056;2023-03-31T04:01:55;99841.50;;;10.10;100.00
69751;BME280;57335;52.288;6.056;2023-03-31T04:04:22;99839.88;;;10.09;100.00
69751;BME280;57335;52.288;6.056;2023-03-31T04:06:49;99837.06;;;10.11;100.00
69751;BME280;57335;52.288;6.056;2023-03-31T04:09:15;99822.34;;;9.98;100.00
69751;BME280;57335;52.288;6.056;2023-03-31T04:11:41;99835.56;;;10.03;100.00
69751;BME280;57335;52.288;6.056;2023-03-31T04:14:08;99805.50;;;9.94;100.00
69751;BME280;57335;52.288;6.056;2023-03-31T04:16:34;99807.69;;;9.97;100.00
69751;BME280;57335;52.288;6.056;2023-03-31T04:19:01;99795.38;;;9.86;100.00
69751;BME280;57335;52.288;6.056;2023-03-31T04:21:27;99798.78;;;9.98;100.00
69751;BME280;57335;52.288;6.056;2023-03-31T04:23:54;99802.31;;;9.92;100.00
69751;BME280;57335;52.288;6.056;2023-03-31T04:26:20;99779.91;;;9.84;100.00
69751;BME280;57335;52.288;6.056;2023-03-31T04:28:46;99776.47;;;9.84;100.00
69751;BME280;57335;52.288;6.056;2023-03-31T04:31:13;99787.53;;;9.86;100.00
69751;BME280;57335;52.288;6.056;2023-03-31T04:33:40;99769.31;;;9.79;100.00
69751;BME280;57335;52.288;6.056;2023-03-31T04:36:07;99762.63;;;9.83;100.00
69751;BME280;57335;52.288;6.056;2023-03-31T04:38:34;99755.44;;;9.78;100.00
69751;BME280;57335;52.288;6.056;2023-03-31T04:41:00;99758.84;;;9.79;100.00
69751;BME280;57335;52.288;6.056;2023-03-31T04:43:27;99765.00;;;9.85;100.00
69751;BME280;57335;52.288;6.056;2023-03-31T04:45:53;99758.75;;;9.86;100.00
69751;BME280;57335;52.288;6.056;2023-03-31T04:48:19;99750.56;;;9.70;100.00
69751;BME280;57335;52.288;6.056;2023-03-31T04:50:46;99735.31;;;9.67;100.00
69751;BME280;57335;52.288;6.056;2023-03-31T04:53:12;99749.66;;;9.76;100.00
69751;BME280;57335;52.288;6.056;2023-03-31T04:55:38;99724.06;;;9.78;100.00
69751;BME280;57335;52.288;6.056;2023-03-31T04:58:05;99723.59;;;9.82;100.00
69751;BME280;57335;52.288;6.056;2023-03-31T05:00:31;99705.84;;;9.72;100.00
69751;BME280;57335;52.288;6.056;2023-03-31T05:02:58;99694.22;;;9.68;100.00
69751;BME280;57335;52.288;6.056;2023-03-31T05:05:25;99698.47;;;9.69;100.00
69751;BME280;57335;52.288;6.056;2023-03-31T05:07:51;99693.00;;;9.70;100.00
69751;BME280;57335;52.288;6.056;2023-03-31T05:10:18;99679.00;;;9.65;100.00
69751;BME280;57335;52.288;6.056;2023-03-31T05:12:44;99682.06;;;9.73;100.00
69751;BME280;57335;52.288;6.056;2023-03-31T05:15:11;99672.16;;;9.75;100.00
69751;BME280;57335;52.288;6.056;2023-03-31T05:17:38;99641.91;;;9.68;100.00
69751;BME280;57335;52.288;6.056;2023-03-31T05:20:05;99632.16;;;9.63;100.00
69751;BME280;57335;52.288;6.056;2023-03-31T05:22:36;99638.50;;;9.67;100.00
69751;BME280;57335;52.288;6.056;2023-03-31T05:25:05;99642.72;;;9.68;100.00
69751;BME280;57335;52.288;6.056;2023-03-31T05:27:32;99641.00;;;9.74;100.00
69751;BME280;57335;52.288;6.056;2023-03-31T05:29:59;99618.84;;;9.65;100.00
69751;BME280;57335;52.288;6.056;2023-03-31T05:32:26;99624.06;;;9.65;100.00
69751;BME280;57335;52.288;6.056;2023-03-31T05:34:53;99607.91;;;9.56;100.00
69751;BME280;57335;52.288;6.056;2023-03-31T05:37:19;99617.81;;;9.66;100.00
69751;BME280;57335;52.288;6.056;2023-03-31T05:39:46;99607.34;;;9.66;100.00
69751;BME280;57335;52.288;6.056;2023-03-31T05:42:12;99617.81;;;9.66;100.00
69751;BME280;57335;52.288;6.056;2023-03-31T05:44:38;99613.69;;;9.70;100.00
69751;BME280;57335;52.288;6.056;2023-03-31T05:47:05;99601.66;;;9.69;100.00
69751;BME280;57335;52.288;6.056;2023-03-31T05:49:31;99607.47;;;9.71;100.00
69751;BME280;57335;52.288;6.056;2023-03-31T05:51:58;99599.47;;;9.77;100.00
69751;BME280;57335;52.288;6.056;2023-03-31T05:54:25;99603.59;;;9.73;100.00
69751;BME280;57335;52.288;6.056;2023-03-31T05:56:52;99584.13;;;9.69;100.00
69751;BME280;57335;52.288;6.056;2023-03-31T05:59:19;99579.03;;;9.74;100.00
69751;BME280;57335;52.288;6.056;2023-03-31T06:01:45;99582.75;;;9.78;100.00
69751;BME280;57335;52.288;6.056;2023-03-31T06:04:12;99580.94;;;9.79;100.00
69751;BME280;57335;52.288;6.056;2023-03-31T06:06:38;99579.22;;;9.85;100.00
69751;BME280;57335;52.288;6.056;2023-03-31T06:09:05;99575.56;;;9.86;100.00
69751;BME280;57335;52.288;6.056;2023-03-31T06:11:32;99548.97;;;9.77;100.00
69751;BME280;57335;52.288;6.056;2023-03-31T06:13:58;99560.91;;;9.85;100.00
69751;BME280;57335;52.288;6.056;2023-03-31T06:16:24;99553.50;;;9.82;100.00
69751;BME280;57335;52.288;6.056;2023-03-31T06:18:51;99558.84;;;9.87;100.00
69751;BME280;57335;52.288;6.056;2023-03-31T06:21:17;99539.38;;;9.94;100.00
69751;BME280;57335;52.288;6.056;2023-03-31T06:23:44;99538.94;;;9.86;100.00
69751;BME280;57335;52.288;6.056;2023-03-31T06:26:17;99531.63;;;9.88;100.00
69751;BME280;57335;52.288;6.056;2023-03-31T06:28:45;99541.06;;;10.01;100.00
69751;BME280;57335;52.288;6.056;2023-03-31T06:31:15;99554.22;;;10.06;100.00
69751;BME280;57335;52.288;6.056;2023-03-31T06:33:42;99540.56;;;10.04;100.00
69751;BME280;57335;52.288;6.056;2023-03-31T06:36:11;99523.91;;;9.93;100.00
69751;BME280;57335;52.288;6.056;2023-03-31T06:38:39;99533.50;;;10.04;100.00
69751;BME280;57335;52.288;6.056;2023-03-31T06:41:06;99535.66;;;10.07;100.00
69751;BME280;57335;52.288;6.056;2023-03-31T06:43:34;99535.22;;;10.10;100.00
69751;BME280;57335;52.288;6.056;2023-03-31T06:46:00;99522.47;;;10.02;100.00
69751;BME280;57335;52.288;6.056;2023-03-31T06:48:26;99524.31;;;10.02;100.00
69751;BME280;57335;52.288;6.056;2023-03-31T06:50:54;99508.94;;;10.05;100.00
69751;BME280;57335;52.288;6.056;2023-03-31T06:53:20;99513.13;;;10.06;100.00
69751;BME280;57335;52.288;6.056;2023-03-31T06:55:47;99509.66;;;10.01;100.00
69751;BME280;57335;52.288;6.056;2023-03-31T06:58:13;99516.41;;;10.13;100.00
69751;BME280;57335;52.288;6.056;2023-03-31T07:00:40;99502.75;;;10.11;100.00
69751;BME280;57335;52.288;6.056;2023-03-31T07:03:06;99500.38;;;10.10;100.00
69751;BME280;57335;52.288;6.056;2023-03-31T07:05:33;99496.00;;;10.15;100.00
69751;BME280;57335;52.288;6.056;2023-03-31T07:08:00;99506.19;;;10.29;100.00
69751;BME280;57335;52.288;6.056;2023-03-31T07:10:28;99489.66;;;10.28;100.00
69751;BME280;57335;52.288;6.056;2023-03-31T07:12:55;99489.00;;;10.33;100.00
69751;BME280;57335;52.288;6.056;2023-03-31T07:15:22;99502.25;;;10.43;100.00
69751;BME280;57335;52.288;6.056;2023-03-31T07:17:48;99478.69;;;10.43;100.00
69751;BME280;57335;52.288;6.056;2023-03-31T07:20:16;99485.69;;;10.54;100.00
69751;BME280;57335;52.288;6.056;2023-03-31T07:22:44;99478.84;;;10.53;100.00
69751;BME280;57335;52.288;6.056;2023-03-31T07:25:13;99493.19;;;10.68;100.00
69751;BME280;57335;52.288;6.056;2023-03-31T07:27:40;99493.84;;;10.75;100.00
69751;BME280;57335;52.288;6.056;2023-03-31T07:30:09;99494.41;;;10.77;100.00
69751;BME280;57335;52.288;6.056;2023-03-31T07:32:36;99495.19;;;10.77;100.00
69751;BME280;57335;52.288;6.056;2023-03-31T07:35:02;99476.69;;;10.67;100.00
69751;BME280;57335;52.288;6.056;2023-03-31T07:37:35;99474.44;;;10.76;100.00
69751;BME280;57335;52.288;6.056;2023-03-31T07:40:03;99473.97;;;10.79;100.00
69751;BME280;57335;52.288;6.056;2023-03-31T07:42:31;99475.81;;;10.78;100.00
69751;BME280;57335;52.288;6.056;2023-03-31T07:44:58;99480.81;;;10.80;100.00
69751;BME280;57335;52.288;6.056;2023-03-31T07:47:25;99478.72;;;10.82;100.00
69751;BME280;57335;52.288;6.056;2023-03-31T07:49:51;99484.28;;;10.86;100.00
69751;BME280;57335;52.288;6.056;2023-03-31T07:52:17;99464.28;;;10.80;100.00
69751;BME280;57335;52.288;6.056;2023-03-31T07:54:45;99471.38;;;10.79;100.00
69751;BME280;57335;52.288;6.056;2023-03-31T07:57:11;99462.94;;;10.77;100.00
69751;BME280;57335;52.288;6.056;2023-03-31T07:59:38;99456.75;;;10.83;100.00
69751;BME280;57335;52.288;6.056;2023-03-31T08:02:05;99453.06;;;10.84;100.00
69751;BME280;57335;52.288;6.056;2023-03-31T08:04:32;99442.72;;;10.72;100.00
69751;BME280;57335;52.288;6.056;2023-03-31T08:06:58;99477.38;;;10.80;100.00
69751;BME280;57335;52.288;6.056;2023-03-31T08:09:25;99475.63;;;10.85;100.00
69751;BME280;57335;52.288;6.056;2023-03-31T08:11:51;99466.78;;;10.69;100.00
69751;BME280;57335;52.288;6.056;2023-03-31T08:14:17;99449.72;;;10.67;100.00
69751;BME280;57335;52.288;6.056;2023-03-31T08:16:59;99445.72;;;10.64;100.00
69751;BME280;57335;52.288;6.056;2023-03-31T08:19:26;99448.06;;;10.61;100.00
69751;BME280;57335;52.288;6.056;2023-03-31T08:21:53;99451.47;;;10.61;100.00
69751;BME280;57335;52.288;6.056;2023-03-31T08:24:19;99460.66;;;10.64;100.00
69751;BME280;57335;52.288;6.056;2023-03-31T08:26:46;99443.03;;;10.59;100.00
69751;BME280;57335;52.288;6.056;2023-03-31T08:29:12;99447.00;;;10.62;100.00
69751;BME280;57335;52.288;6.056;2023-03-31T08:31:39;99442.25;;;10.58;100.00
69751;BME280;57335;52.288;6.056;2023-03-31T08:34:06;99440.66;;;10.57;100.00
69751;BME280;57335;52.288;6.056;2023-03-31T08:36:32;99436.59;;;10.67;100.00
69751;BME280;57335;52.288;6.056;2023-03-31T08:38:58;99434.47;;;10.64;100.00
69751;BME280;57335;52.288;6.056;2023-03-31T08:41:48;99441.59;;;10.68;100.00
69751;BME280;57335;52.288;6.056;2023-03-31T08:44:26;99442.22;;;10.75;100.00
69751;BME280;57335;52.288;6.056;2023-03-31T08:46:56;99435.41;;;10.74;100.00
69751;BME280;57335;52.288;6.056;2023-03-31T08:49:25;99440.38;;;10.76;100.00
69751;BME280;57335;52.288;6.056;2023-03-31T08:52:04;99437.72;;;10.71;100.00
69751;BME280;57335;52.288;6.056;2023-03-31T08:55:22;99428.56;;;10.73;100.00
69751;BME280;57335;52.288;6.056;2023-03-31T09:00:03;99433.06;;;10.78;100.00
69751;BME280;57335;52.288;6.056;2023-03-31T09:02:54;99437.34;;;10.84;100.00
69751;BME280;57335;52.288;6.056;2023-03-31T09:05:32;99417.53;;;10.71;100.00
69751;BME280;57335;52.288;6.056;2023-03-31T09:08:32;99433.63;;;10.80;100.00
69751;BME280;57335;52.288;6.056;2023-03-31T09:11:25;99429.19;;;10.81;100.00
69751;BME280;57335;52.288;6.056;2023-03-31T09:16:53;99422.25;;;10.91;100.00
69751;BME280;57335;52.288;6.056;2023-03-31T09:19:34;99422.25;;;10.91;100.00
69751;BME280;57335;52.288;6.056;2023-03-31T09:22:04;99416.69;;;10.88;100.00
69751;BME280;57335;52.288;6.056;2023-03-31T09:24:47;99417.78;;;10.92;100.00
69751;BME280;57335;52.288;6.056;2023-03-31T09:27:15;99412.41;;;10.98;100.00
69751;BME280;57335;52.288;6.056;2023-03-31T09:29:44;99415.00;;;10.98;100.00
69751;BME280;57335;52.288;6.056;2023-03-31T09:32:17;99408.41;;;10.96;100.00
69751;BME280;57335;52.288;6.056;2023-03-31T09:34:45;99402.84;;;10.92;100.00
69751;BME280;57335;52.288;6.056;2023-03-31T09:37:12;99394.16;;;10.87;100.00
69751;BME280;57335;52.288;6.056;2023-03-31T09:39:39;99405.78;;;10.96;100.00
69751;BME280;57335;52.288;6.056;2023-03-31T09:42:07;99391.53;;;10.87;100.00
69751;BME280;57335;52.288;6.056;2023-03-31T09:44:38;99394.22;;;10.92;100.00
69751;BME280;57335;52.288;6.056;2023-03-31T09:47:12;99391.53;;;10.87;100.00
69751;BME280;57335;52.288;6.056;2023-03-31T09:49:44;99396.78;;;10.87;100.00
69751;BME280;57335;52.288;6.056;2023-03-31T09:52:36;99390.88;;;10.96;100.00
69751;BME280;57335;52.288;6.056;2023-03-31T09:58:06;99381.50;;;11.28;100.00
69751;BME280;57335;52.288;6.056;2023-03-31T10:00:33;99377.22;;;11.44;100.00
69751;BME280;57335;52.288;6.056;2023-03-31T10:03:02;99375.28;;;11.61;100.00
69751;BME280;57335;52.288;6.056;2023-03-31T10:05:35;99360.63;;;11.65;100.00
69751;BME280;57335;52.288;6.056;2023-03-31T10:10:43;99368.75;;;11.91;100.00
69751;BME280;57335;52.288;6.056;2023-03-31T10:13:14;99368.53;;;11.97;100.00
69751;BME280;57335;52.288;6.056;2023-03-31T10:15:42;99369.69;;;12.12;100.00
69751;BME280;57335;52.288;6.056;2023-03-31T10:18:18;99362.13;;;12.21;100.00
69751;BME280;57335;52.288;6.056;2023-03-31T10:20:50;99356.69;;;12.32;100.00
69751;BME280;57335;52.288;6.056;2023-03-31T10:23:27;99362.31;;;12.51;100.00
69751;BME280;57335;52.288;6.056;2023-03-31T10:25:54;99362.88;;;12.58;100.00
69751;BME280;57335;52.288;6.056;2023-03-31T10:28:21;99347.38;;;12.57;100.00
69751;BME280;57335;52.288;6.056;2023-03-31T10:30:53;99361.31;;;12.63;100.00
69751;BME280;57335;52.288;6.056;2023-03-31T10:33:26;99345.00;;;12.55;100.00
69751;BME280;57335;52.288;6.056;2023-03-31T10:35:55;99348.94;;;12.58;100.00
69751;BME280;57335;52.288;6.056;2023-03-31T10:38:25;99341.84;;;12.58;100.00
69751;BME280;57335;52.288;6.056;2023-03-31T10:40:55;99338.47;;;12.63;100.00
69751;BME280;57335;52.288;6.056;2023-03-31T10:43:34;99344.00;;;12.72;100.00
69751;BME280;57335;52.288;6.056;2023-03-31T10:46:02;99338.28;;;12.90;100.00
69751;BME280;57335;52.288;6.056;2023-03-31T10:48:31;99341.44;;;12.92;99.36
69751;BME280;57335;52.288;6.056;2023-03-31T10:51:19;99344.13;;;13.08;100.00
69751;BME280;57335;52.288;6.056;2023-03-31T10:53:47;99336.75;;;13.05;100.00
69751;BME280;57335;52.288;6.056;2023-03-31T11:07:30;99336.09;;;13.71;94.97
69751;BME280;57335;52.288;6.056;2023-03-31T11:13:20;99324.50;;;13.77;91.52
69751;BME280;57335;52.288;6.056;2023-03-31T11:18:56;99314.25;;;13.86;92.66
69751;BME280;57335;52.288;6.056;2023-03-31T11:24:21;99308.44;;;13.94;91.99
69751;BME280;57335;52.288;6.056;2023-03-31T11:27:07;99298.44;;;14.01;88.72
69751;BME280;57335;52.288;6.056;2023-03-31T11:29:52;99305.56;;;13.85;87.07
69751;BME280;57335;52.288;6.056;2023-03-31T11:32:36;99303.94;;;13.94;90.42
69751;BME280;57335;52.288;6.056;2023-03-31T11:40:47;99303.63;;;14.32;90.32
69751;BME280;57335;52.288;6.056;2023-03-31T11:43:39;99305.44;;;14.36;82.80
69751;BME280;57335;52.288;6.056;2023-03-31T11:46:23;99297.28;;;14.38;84.74
69751;BME280;57335;52.288;6.056;2023-03-31T11:49:01;99298.59;;;14.30;85.05
69751;BME280;57335;52.288;6.056;2023-03-31T11:54:40;99302.84;;;14.26;84.61
69751;BME280;57335;52.288;6.056;2023-03-31T11:57:19;99292.88;;;14.08;83.44
69751;BME280;57335;52.288;6.056;2023-03-31T11:59:53;99296.31;;;13.98;84.23
69751;BME280;57335;52.288;6.056;2023-03-31T12:02:38;99290.00;;;13.79;83.67
69751;BME280;57335;52.288;6.056;2023-03-31T12:05:07;99295.56;;;13.72;84.21
69751;BME280;57335;52.288;6.056;2023-03-31T12:10:31;99283.19;;;13.67;87.21
69751;BME280;57335;52.288;6.056;2023-03-31T12:13:27;99281.88;;;13.70;87.45
69751;BME280;57335;52.288;6.056;2023-03-31T12:16:23;99278.19;;;13.61;85.26
69751;BME280;57335;52.288;6.056;2023-03-31T12:21:22;99276.09;;;13.57;87.15
69751;BME280;57335;52.288;6.056;2023-03-31T12:23:50;99276.88;;;13.63;87.82
69751;BME280;57335;52.288;6.056;2023-03-31T12:26:41;99278.97;;;13.71;89.62
69751;BME280;57335;52.288;6.056;2023-03-31T12:29:24;99274.25;;;13.73;91.80
69751;BME280;57335;52.288;6.056;2023-03-31T12:31:54;99265.31;;;13.59;85.05
69751;BME280;57335;52.288;6.056;2023-03-31T12:34:25;99263.19;;;13.71;87.80
69751;BME280;57335;52.288;6.056;2023-03-31T12:37:08;99268.72;;;13.60;85.78
69751;BME280;57335;52.288;6.056;2023-03-31T12:39:53;99243.72;;;13.52;87.16
69751;BME280;57335;52.288;6.056;2023-03-31T12:42:34;99269.75;;;13.59;89.51
69751;BME280;57335;52.288;6.056;2023-03-31T12:45:30;99268.44;;;13.56;89.28
69751;BME280;57335;52.288;6.056;2023-03-31T12:48:18;99269.50;;;13.29;88.23
69751;BME280;57335;52.288;6.056;2023-03-31T12:51:08;99266.88;;;13.29;91.11
69751;BME280;57335;52.288;6.056;2023-03-31T12:56:17;99238.44;;;13.21;92.25
69751;BME280;57335;52.288;6.056;2023-03-31T12:58:44;99250.53;;;13.43;94.31
69751;BME280;57335;52.288;6.056;2023-03-31T13:01:21;99241.84;;;13.52;93.23
69751;BME280;57335;52.288;6.056;2023-03-31T13:09:05;99247.38;;;13.30;90.13
69751;BME280;57335;52.288;6.056;2023-03-31T13:14:12;99248.44;;;13.19;91.73
69751;BME280;57335;52.288;6.056;2023-03-31T13:16:41;99245.22;;;13.07;91.69
69751;BME280;57335;52.288;6.056;2023-03-31T13:19:11;99251.00;;;12.88;94.50
69751;BME280;57335;52.288;6.056;2023-03-31T13:21:55;99256.75;;;12.75;96.92
69751;BME280;57335;52.288;6.056;2023-03-31T13:24:23;99258.81;;;12.63;100.00
69751;BME280;57335;52.288;6.056;2023-03-31T13:26:51;99246.94;;;12.50;100.00
69751;BME280;57335;52.288;6.056;2023-03-31T13:29:23;99259.28;;;12.39;100.00
69751;BME280;57335;52.288;6.056;2023-03-31T13:32:06;99243.19;;;12.25;100.00
69751;BME280;57335;52.288;6.056;2023-03-31T13:34:43;99237.09;;;12.20;100.00
69751;BME280;57335;52.288;6.056;2023-03-31T13:37:29;99245.03;;;12.30;100.00
69751;BME280;57335;52.288;6.056;2023-03-31T13:40:25;99237.22;;;12.45;100.00
69751;BME280;57335;52.288;6.056;2023-03-31T13:43:19;99241.47;;;12.62;100.00
69751;BME280;57335;52.288;6.056;2023-03-31T13:46:05;99238.34;;;12.70;98.44
69751;BME280;57335;52.288;6.056;2023-03-31T13:54:18;99200.53;;;12.96;100.00
69751;BME280;57335;52.288;6.056;2023-03-31T14:02:56;99222.09;;;13.55;96.66
69751;BME280;57335;52.288;6.056;2023-03-31T14:05:36;99205.28;;;13.51;96.42
69751;BME280;57335;52.288;6.056;2023-03-31T14:10:41;99194.25;;;13.33;93.08
69751;BME280;57335;52.288;6.056;2023-03-31T14:13:13;99199.78;;;13.37;92.57
69751;BME280;57335;52.288;6.056;2023-03-31T14:15:55;99197.38;;;13.25;95.42
69751;BME280;57335;52.288;6.056;2023-03-31T14:18:26;99197.38;;;13.20;97.03
69751;BME280;57335;52.288;6.056;2023-03-31T14:26:40;99184.47;;;12.77;95.93
69751;BME280;57335;52.288;6.056;2023-03-31T14:29:20;99196.81;;;12.72;95.76
69751;BME280;57335;52.288;6.056;2023-03-31T14:31:58;99180.25;;;12.61;96.94
69751;BME280;57335;52.288;6.056;2023-03-31T14:37:18;99187.56;;;12.54;96.88
69751;BME280;57335;52.288;6.056;2023-03-31T14:39:48;99175.72;;;12.41;95.86
69751;BME280;57335;52.288;6.056;2023-03-31T14:42:17;99169.38;;;12.32;99.55
69751;BME280;57335;52.288;6.056;2023-03-31T14:44:45;99188.78;;;12.21;100.00
69751;BME280;57335;52.288;6.056;2023-03-31T14:47:21;99178.81;;;12.17;98.02
69751;BME280;57335;52.288;6.056;2023-03-31T14:50:02;99181.41;;;12.12;98.71
69751;BME280;57335;52.288;6.056;2023-03-31T14:52:32;99167.94;;;11.93;100.00
69751;BME280;57335;52.288;6.056;2023-03-31T14:54:59;99176.59;;;11.89;100.00
69751;BME280;57335;52.288;6.056;2023-03-31T14:57:33;99190.50;;;11.94;100.00
69751;BME280;57335;52.288;6.056;2023-03-31T15:00:03;99176.03;;;11.87;100.00
69751;BME280;57335;52.288;6.056;2023-03-31T15:02:34;99188.16;;;11.93;100.00